createdAt,value
2022-10-03T00:02:27.272Z,100524.38
2022-10-03T00:05:12.321Z,100525.09
2022-10-03T00:07:58.002Z,100509.48
2022-10-03T00:10:37.638Z,100505.73
2022-10-03T00:13:22.280Z,100506.63
2022-10-03T00:16:03.377Z,100498.67
2022-10-03T00:18:45.491Z,100488.77
2022-10-03T00:21:34.462Z,100478.13
2022-10-03T00:24:15.496Z,100472.70
2022-10-03T00:26:53.500Z,100468.92
2022-10-03T00:29:41.705Z,100464.50
2022-10-03T00:32:28.139Z,100460.13
2022-10-03T00:35:15.113Z,100456.85
2022-10-03T00:37:57.530Z,100461.27
2022-10-03T00:40:40.961Z,100463.29
2022-10-03T00:43:34.859Z,100462.73
2022-10-03T00:46:29.995Z,100468.73
2022-10-03T00:49:28.845Z,100474.16
2022-10-03T00:52:18.593Z,100470.13
2022-10-03T00:55:00.789Z,100465.30
2022-10-03T00:57:58.928Z,100459.91
2022-10-03T01:00:32.471Z,100451.32
2022-10-03T01:03:29.954Z,100443.77
2022-10-03T01:06:16.543Z,100443.05
2022-10-03T01:09:10.269Z,100442.44
2022-10-03T01:11:54.075Z,100445.40
2022-10-03T01:14:45.368Z,100449.52
2022-10-03T01:17:23.871Z,100450.99
2022-10-03T01:20:14.390Z,100458.19
2022-10-03T01:23:10.622Z,100470.77
2022-10-03T01:25:46.827Z,100476.29
2022-10-03T01:28:58.664Z,100475.20
2022-10-03T01:31:34.732Z,100466.20
2022-10-03T01:34:12.515Z,100464.61
2022-10-03T01:36:53.378Z,100461.43
2022-10-03T01:39:33.018Z,100478.13
2022-10-03T01:42:10.248Z,100477.26
2022-10-03T01:44:54.127Z,100472.24
2022-10-03T01:47:29.148Z,100472.36
2022-10-03T01:50:06.415Z,100477.51
2022-10-03T01:52:46.193Z,100473.41
2022-10-03T01:55:26.881Z,100482.85
2022-10-03T01:58:02.272Z,100485.05
2022-10-03T02:00:41.929Z,100495.44
2022-10-03T02:03:22.793Z,100499.52
2022-10-03T02:06:02.204Z,100495.80
2022-10-03T02:08:47.225Z,100493.98
2022-10-03T02:11:31.672Z,100494.57
2022-10-03T02:14:13.122Z,100495.47
2022-10-03T02:16:47.042Z,100492.65
2022-10-03T02:19:23.939Z,100492.56
2022-10-03T02:21:58.248Z,100495.42
2022-10-03T02:24:47.983Z,100490.00
2022-10-03T02:28:02.596Z,100490.45
2022-10-03T02:30:38.944Z,100488.51
2022-10-03T02:33:46.357Z,100475.29
2022-10-03T02:36:52.920Z,100480.30
2022-10-03T02:39:43.351Z,100479.83
2022-10-03T02:42:41.880Z,100486.77
2022-10-03T02:45:39.862Z,100484.45
2022-10-03T02:48:37.316Z,100482.30
2022-10-03T02:51:30.285Z,100485.05
2022-10-03T02:54:20.652Z,100485.18
2022-10-03T02:57:46.814Z,100488.11
2022-10-03T03:00:20.998Z,100479.23
2022-10-03T03:03:22.841Z,100474.63
2022-10-03T03:06:34.213Z,100478.52
2022-10-03T03:09:35.315Z,100475.63
2022-10-03T03:12:40.464Z,100479.77
2022-10-03T03:15:49.182Z,100490.86
2022-10-03T03:18:30.633Z,100493.16
2022-10-03T03:21:17.016Z,100501.39
2022-10-03T03:24:09.277Z,100494.45
2022-10-03T03:26:59.553Z,100493.39
2022-10-03T03:29:43.319Z,100491.51
2022-10-03T03:32:27.297Z,100484.13
2022-10-03T03:35:06.081Z,100485.76
2022-10-03T03:37:44.537Z,100478.54
2022-10-03T03:40:32.469Z,100473.15
2022-10-03T03:43:19.845Z,100466.29
2022-10-03T03:46:02.501Z,100459.52
2022-10-03T03:48:48.303Z,100454.95
2022-10-03T03:51:31.139Z,100464.44
2022-10-03T03:54:19.816Z,100474.69
2022-10-03T03:57:01.929Z,100471.98
2022-10-03T03:59:44.851Z,100464.11
2022-10-03T04:02:28.947Z,100465.56
2022-10-03T04:05:13.838Z,100463.95
2022-10-03T04:07:59.609Z,100462.33
2022-10-03T04:10:42.649Z,100464.80
2022-10-03T04:13:30.588Z,100470.64
2022-10-03T04:16:45.584Z,100474.93
2022-10-03T04:19:28.689Z,100479.30
2022-10-03T04:22:14.198Z,100476.56
2022-10-03T04:25:18.274Z,100477.77
2022-10-03T04:28:17.777Z,100475.95
2022-10-03T04:31:02.652Z,100470.31
2022-10-03T04:33:43.416Z,100471.84
2022-10-03T04:36:43.524Z,100472.37
2022-10-03T04:39:27.620Z,100472.89
2022-10-03T04:42:04.385Z,100472.02
2022-10-03T04:44:44.864Z,100469.73
2022-10-03T04:47:23.685Z,100464.27
2022-10-03T04:50:02.297Z,100462.89
2022-10-03T04:52:39.578Z,100464.42
2022-10-03T04:55:24.611Z,100460.41
2022-10-03T04:58:04.737Z,100459.11
2022-10-03T05:00:50.832Z,100459.68
2022-10-03T05:03:33.065Z,100453.42
2022-10-03T05:06:09.201Z,100457.14
2022-10-03T05:08:48.113Z,100454.16
2022-10-03T05:11:26.279Z,100450.83
2022-10-03T05:14:06.177Z,100452.06
2022-10-03T05:16:46.491Z,100451.61
2022-10-03T05:19:39.118Z,100455.76
2022-10-03T05:22:19.517Z,100461.42
2022-10-03T05:24:59.400Z,100460.42
2022-10-03T05:27:37.742Z,100455.16
2022-10-03T05:30:15.460Z,100448.80
2022-10-03T05:32:51.606Z,100445.29
2022-10-03T05:35:32.725Z,100444.81
2022-10-03T05:38:20.421Z,100441.86
2022-10-03T05:41:05.126Z,100443.66
2022-10-03T05:43:50.562Z,100446.24
2022-10-03T05:46:40.387Z,100448.45
2022-10-03T05:49:27.382Z,100449.60
2022-10-03T05:52:19.544Z,100452.08
2022-10-03T05:55:15.849Z,100451.07
2022-10-03T05:58:18.442Z,100448.64
2022-10-03T06:01:07.450Z,100452.96
2022-10-03T06:04:05.750Z,100461.55
2022-10-03T06:06:49.703Z,100459.55
2022-10-03T06:09:40.147Z,100459.27
2022-10-03T06:12:15.004Z,100461.90
2022-10-03T06:15:17.907Z,100462.48
2022-10-03T06:18:04.723Z,100458.84
2022-10-03T06:21:17.678Z,100460.10
2022-10-03T06:24:22.343Z,100461.75
2022-10-03T06:27:24.060Z,100462.77
2022-10-03T06:30:20.543Z,100467.39
2022-10-03T06:33:38.838Z,100468.60
2022-10-03T06:36:36.206Z,100470.49
2022-10-03T06:39:45.504Z,100473.66
2022-10-03T06:42:48.163Z,100482.42
2022-10-03T06:45:55.701Z,100484.72
2022-10-03T06:48:51.306Z,100489.63
2022-10-03T06:51:46.492Z,100493.48
2022-10-03T06:54:58.349Z,100493.32
2022-10-03T06:57:46.431Z,100489.80
2022-10-03T07:00:21.536Z,100488.64
2022-10-03T07:03:14.526Z,100482.09
2022-10-03T07:05:58.224Z,100484.20
2022-10-03T07:09:03.113Z,100483.48
2022-10-03T07:11:49.798Z,100478.33
2022-10-03T07:14:53.155Z,100472.89
2022-10-03T07:17:28.946Z,100470.70
2022-10-03T07:20:20.140Z,100469.00
2022-10-03T07:23:14.628Z,100468.63
2022-10-03T07:26:27.651Z,100469.14
2022-10-03T07:29:15.850Z,100472.73
2022-10-03T07:32:02.132Z,100478.77
2022-10-03T07:35:08.208Z,100479.31
2022-10-03T07:38:09.136Z,100484.48
2022-10-03T07:41:00.052Z,100483.60
2022-10-03T07:43:56.260Z,100479.91
2022-10-03T07:47:10.673Z,100474.84
2022-10-03T07:50:31.260Z,100478.16
2022-10-03T07:53:17.360Z,100469.97
2022-10-03T07:56:09.324Z,100462.33
2022-10-03T07:59:11.613Z,100465.56
2022-10-03T08:01:54.740Z,100456.77
2022-10-03T08:04:51.233Z,100455.48
2022-10-03T08:07:42.976Z,100453.60
2022-10-03T08:10:24.541Z,100451.96
2022-10-03T08:13:28.303Z,100447.68
2022-10-03T08:16:16.352Z,100447.15
2022-10-03T08:19:14.535Z,100440.80
2022-10-03T08:21:57.210Z,100434.56
2022-10-03T08:24:34.420Z,100434.09
2022-10-03T08:27:35.342Z,100436.11
2022-10-03T08:30:21.304Z,100435.67
2022-10-03T08:33:05.796Z,100436.55
2022-10-03T08:35:58.836Z,100431.41
2022-10-03T08:39:02.318Z,100427.40
2022-10-03T08:42:11.304Z,100422.34
2022-10-03T08:44:55.697Z,100414.56
2022-10-03T08:48:02.707Z,100409.80
2022-10-03T08:50:46.996Z,100408.02
2022-10-03T08:53:47.879Z,100408.09
2022-10-03T08:56:22.855Z,100410.02
2022-10-03T08:59:34.500Z,100408.68
2022-10-03T09:02:39.652Z,100406.77
2022-10-03T09:05:47.525Z,100406.55
2022-10-03T09:08:52.287Z,100402.50
2022-10-03T09:11:41.141Z,100397.74
2022-10-03T09:14:47.164Z,100393.34
2022-10-03T09:17:57.073Z,100394.08
2022-10-03T09:21:15.449Z,100393.30
2022-10-03T09:24:07.204Z,100395.73
2022-10-03T09:27:12.622Z,100384.59
2022-10-03T09:30:20.570Z,100379.53
2022-10-03T09:33:34.533Z,100374.73
2022-10-03T09:36:13.212Z,100378.73
2022-10-03T09:39:06.546Z,100371.39
2022-10-03T09:42:13.603Z,100368.89
2022-10-03T09:45:24.476Z,100362.56
2022-10-03T09:48:13.343Z,100365.85
2022-10-03T09:51:30.068Z,100362.43
2022-10-03T09:54:35.551Z,100368.48
2022-10-03T09:57:38.672Z,100368.69
2022-10-03T10:00:34.981Z,100362.25
2022-10-03T10:03:29.724Z,100364.33
2022-10-03T10:06:24.634Z,100363.30
2022-10-03T10:09:29.479Z,100365.09
2022-10-03T10:12:24.474Z,100358.42
2022-10-03T10:15:44.442Z,100353.27
2022-10-03T10:18:35.101Z,100345.37
2022-10-03T10:21:31.723Z,100344.76
2022-10-03T10:24:18.742Z,100339.06
2022-10-03T10:27:14.069Z,100342.20
2022-10-03T10:30:20.732Z,100351.30
2022-10-03T10:33:20.755Z,100348.10
2022-10-03T10:36:16.900Z,100339.86
2022-10-03T10:39:32.320Z,100338.82
2022-10-03T10:42:37.356Z,100342.48
2022-10-03T10:45:28.674Z,100338.27
2022-10-03T10:48:45.770Z,100335.02
2022-10-03T10:51:42.092Z,100329.12
2022-10-03T10:54:55.835Z,100319.02
2022-10-03T10:57:54.119Z,100315.23
2022-10-03T11:00:32.640Z,100317.76
2022-10-03T11:03:50.648Z,100309.89
2022-10-03T11:06:54.379Z,100311.62
2022-10-03T11:09:45.133Z,100308.48
2022-10-03T11:12:49.461Z,100307.61
2022-10-03T11:16:04.158Z,100305.61
2022-10-03T11:18:56.654Z,100305.14
2022-10-03T11:21:59.710Z,100304.77
2022-10-03T11:25:14.604Z,100309.10
2022-10-03T11:28:07.425Z,100304.27
2022-10-03T11:31:01.831Z,100302.01
2022-10-03T11:34:12.507Z,100288.02
2022-10-03T11:37:01.887Z,100275.36
2022-10-03T11:39:43.323Z,100281.05
2022-10-03T11:42:23.363Z,100270.23
2022-10-03T11:45:00.153Z,100273.91
2022-10-03T11:47:55.277Z,100268.93
2022-10-03T11:50:47.891Z,100260.67
2022-10-03T11:53:23.399Z,100265.73
2022-10-03T11:56:07.588Z,100250.75
2022-10-03T11:58:50.981Z,100245.45
2022-10-03T12:01:29.048Z,100246.70
2022-10-03T12:04:10.088Z,100239.80
2022-10-03T12:07:10.880Z,100239.16
2022-10-03T12:09:55.156Z,100228.73
2022-10-03T12:12:36.029Z,100228.60
2022-10-03T12:15:24.224Z,100226.55
2022-10-03T12:18:05.243Z,100218.20
2022-10-03T12:20:53.198Z,100227.50
2022-10-03T12:23:32.907Z,100248.60
2022-10-03T12:26:06.277Z,100256.46
2022-10-03T12:28:41.101Z,100272.55
2022-10-03T12:31:19.358Z,100273.52
2022-10-03T12:33:56.387Z,100273.45
2022-10-03T12:36:31.066Z,100278.84
2022-10-03T12:39:14.421Z,100282.73
2022-10-03T12:42:04.934Z,100290.79
2022-10-03T12:44:47.268Z,100305.45
2022-10-03T12:47:54.327Z,100317.40
2022-10-03T12:50:39.953Z,100334.86
2022-10-03T12:53:27.912Z,100324.39
2022-10-03T12:56:12.804Z,100328.79
2022-10-03T12:58:57.053Z,100322.47
2022-10-03T13:01:40.450Z,100313.73
2022-10-03T13:04:23.002Z,100306.30
2022-10-03T13:07:05.919Z,100303.87
2022-10-03T13:09:55.378Z,100309.17
2022-10-03T13:12:39.391Z,100304.66
2022-10-03T13:15:41.385Z,100301.41
2022-10-03T13:18:33.604Z,100303.83
2022-10-03T13:21:33.419Z,100305.33
2022-10-03T13:24:07.198Z,100299.58
2022-10-03T13:26:52.236Z,100302.81
2022-10-03T13:29:33.217Z,100302.27
2022-10-03T13:32:16.394Z,100305.25
2022-10-03T13:35:24.623Z,100308.33
2022-10-03T13:38:17.035Z,100310.16
2022-10-03T13:40:53.022Z,100317.34
2022-10-03T13:43:30.266Z,100317.69
2022-10-03T13:46:03.599Z,100317.65
2022-10-03T13:48:36.449Z,100315.27
2022-10-03T13:51:14.665Z,100312.91
2022-10-03T13:54:01.565Z,100308.95
2022-10-03T13:56:44.593Z,100303.77
2022-10-03T13:59:32.542Z,100303.93
2022-10-03T14:02:14.833Z,100300.52
2022-10-03T14:05:28.359Z,100299.02
2022-10-03T14:08:09.191Z,100300.96
2022-10-03T14:11:01.953Z,100300.91
2022-10-03T14:13:33.764Z,100299.89
2022-10-03T14:16:11.468Z,100299.66
2022-10-03T14:18:49.530Z,100297.77
2022-10-03T14:21:47.074Z,100301.51
2022-10-03T14:24:46.641Z,100306.61
2022-10-03T14:27:36.297Z,100304.85
2022-10-03T14:30:13.722Z,100301.45
2022-10-03T14:32:54.921Z,100302.44
2022-10-03T14:35:46.658Z,100298.27
2022-10-03T14:39:02.459Z,100297.86
2022-10-03T14:42:07.535Z,100296.17
2022-10-03T14:44:43.646Z,100296.98
2022-10-03T14:47:18.682Z,100298.60
2022-10-03T14:49:59.060Z,100297.34
2022-10-03T14:52:39.035Z,100301.63
2022-10-03T14:55:17.817Z,100301.05
2022-10-03T14:58:09.860Z,100305.07
2022-10-03T15:00:46.119Z,100301.33
2022-10-03T15:03:38.302Z,100297.30
2022-10-03T15:06:37.942Z,100298.96
2022-10-03T15:09:15.145Z,100301.38
2022-10-03T15:11:52.474Z,100304.80
2022-10-03T15:14:24.923Z,100306.46
2022-10-03T15:16:56.115Z,100308.02
2022-10-03T15:19:31.572Z,100311.77
2022-10-03T15:22:12.947Z,100317.11
2022-10-03T15:24:45.468Z,100320.77
2022-10-03T15:27:22.289Z,100328.26
2022-10-03T15:29:57.223Z,100334.39
2022-10-03T15:32:34.202Z,100338.27
2022-10-03T15:35:08.091Z,100344.55
2022-10-03T15:37:47.589Z,100346.83
2022-10-03T15:40:39.375Z,100350.40
2022-10-03T15:43:29.934Z,100355.70
2022-10-03T15:46:16.765Z,100361.87
2022-10-03T15:48:55.396Z,100361.86
2022-10-03T15:51:28.545Z,100364.30
2022-10-03T15:54:03.305Z,100366.45
2022-10-03T15:56:41.552Z,100371.59
2022-10-03T15:59:21.234Z,100379.25
2022-10-03T16:01:55.832Z,100382.06
2022-10-03T16:04:29.884Z,100381.62
2022-10-03T16:07:09.670Z,100388.55
2022-10-03T16:09:52.541Z,100388.92
2022-10-03T16:12:55.377Z,100391.55
2022-10-03T16:15:35.545Z,100394.84
2022-10-03T16:18:12.768Z,100399.55
2022-10-03T16:20:49.769Z,100404.06
2022-10-03T16:23:23.072Z,100401.73
2022-10-03T16:25:58.094Z,100407.92
2022-10-03T16:28:34.671Z,100407.83
2022-10-03T16:31:09.385Z,100409.81
2022-10-03T16:33:44.323Z,100413.27
2022-10-03T16:36:21.264Z,100414.98
2022-10-03T16:38:59.389Z,100419.84
2022-10-03T16:41:33.115Z,100424.98
2022-10-03T16:44:11.299Z,100429.08
2022-10-03T16:46:47.075Z,100430.95
2022-10-03T16:49:54.931Z,100437.80
2022-10-03T16:52:33.457Z,100441.84
2022-10-03T16:55:08.696Z,100447.13
2022-10-03T16:57:45.824Z,100449.34
2022-10-03T17:00:22.228Z,100454.71
2022-10-03T17:02:55.607Z,100455.11
2022-10-03T17:05:28.392Z,100459.14
2022-10-03T17:08:18.152Z,100456.30
2022-10-03T17:10:58.840Z,100456.34
2022-10-03T17:13:43.336Z,100459.30
2022-10-03T17:16:22.214Z,100465.67
2022-10-03T17:19:09.475Z,100465.86
2022-10-03T17:21:43.732Z,100462.02
2022-10-03T17:24:18.074Z,100465.45
2022-10-03T17:26:53.800Z,100467.74
2022-10-03T17:29:30.327Z,100471.45
2022-10-03T17:32:04.550Z,100473.32
2022-10-03T17:34:39.281Z,100481.27
2022-10-03T17:37:22.026Z,100480.02
2022-10-03T17:39:57.353Z,100479.92
2022-10-03T17:42:37.367Z,100476.27
2022-10-03T17:45:35.290Z,100479.60
2022-10-03T17:48:15.781Z,100481.05
2022-10-03T17:50:58.070Z,100488.40
2022-10-03T17:53:32.140Z,100490.17
2022-10-03T17:56:09.277Z,100487.10
2022-10-03T17:58:45.553Z,100486.01
2022-10-03T18:01:19.942Z,100485.20
2022-10-03T18:03:54.880Z,100487.41
2022-10-03T18:06:43.912Z,100491.53
2022-10-03T18:09:26.972Z,100487.45
2022-10-03T18:12:06.393Z,100481.61
2022-10-03T18:14:48.194Z,100480.49
2022-10-03T18:17:23.985Z,100485.84
2022-10-03T18:20:25.133Z,100486.92
2022-10-03T18:23:02.774Z,100488.37
2022-10-03T18:26:20.678Z,100488.73
2022-10-03T18:28:59.768Z,100488.60
2022-10-03T18:31:35.331Z,100487.31
2022-10-03T18:34:13.887Z,100494.04
2022-10-03T18:36:48.944Z,100500.21
2022-10-03T18:39:23.608Z,100506.30
2022-10-03T18:41:59.729Z,100506.17
2022-10-03T18:44:33.191Z,100513.80
2022-10-03T18:47:17.473Z,100512.27
2022-10-03T18:49:55.917Z,100514.84
2022-10-03T18:52:33.320Z,100514.10
2022-10-03T18:55:13.810Z,100513.92
2022-10-03T18:57:51.320Z,100514.67
2022-10-03T19:00:26.635Z,100508.44
2022-10-03T19:03:02.879Z,100506.56
2022-10-03T19:05:37.710Z,100508.85
2022-10-03T19:08:17.732Z,100507.85
2022-10-03T19:10:51.815Z,100513.39
2022-10-03T19:13:33.928Z,100513.46
2022-10-03T19:16:18.108Z,100519.17
2022-10-03T19:19:01.875Z,100525.74
2022-10-03T19:21:39.007Z,100530.75
2022-10-03T19:24:17.636Z,100530.92
2022-10-03T19:26:54.113Z,100526.49
2022-10-03T19:29:28.944Z,100524.41
2022-10-03T19:32:05.769Z,100525.80
2022-10-03T19:34:40.755Z,100528.30
2022-10-03T19:37:17.363Z,100530.62
2022-10-03T19:39:49.548Z,100536.30
2022-10-03T19:42:36.581Z,100541.88
2022-10-03T19:45:15.395Z,100542.08
2022-10-03T19:47:52.290Z,100542.05
2022-10-03T19:50:29.980Z,100542.95
2022-10-03T19:53:02.715Z,100547.44
2022-10-03T19:55:39.209Z,100546.54
2022-10-03T19:58:23.822Z,100546.16
2022-10-03T20:00:58.055Z,100551.52
2022-10-03T20:03:39.801Z,100555.33
2022-10-03T20:06:19.092Z,100560.02
2022-10-03T20:08:55.298Z,100562.00
2022-10-03T20:11:38.329Z,100562.30
2022-10-03T20:14:12.516Z,100565.64
2022-10-03T20:16:49.529Z,100567.34
2022-10-03T20:19:25.487Z,100567.33
2022-10-03T20:21:58.886Z,100566.77
2022-10-03T20:24:35.494Z,100572.11
2022-10-03T20:27:21.164Z,100578.27
2022-10-03T20:30:02.850Z,100585.05
2022-10-03T20:32:36.160Z,100583.35
2022-10-03T20:35:13.249Z,100586.13
2022-10-03T20:37:50.329Z,100586.98
2022-10-03T20:40:30.822Z,100588.36
2022-10-03T20:43:13.256Z,100586.87
2022-10-03T20:45:46.668Z,100587.52
2022-10-03T20:48:22.634Z,100592.56
2022-10-03T20:50:57.523Z,100591.94
2022-10-03T20:53:31.104Z,100593.42
2022-10-03T20:56:06.433Z,100601.98
2022-10-03T20:58:42.903Z,100602.35
2022-10-03T21:01:20.626Z,100602.79
2022-10-03T21:04:08.402Z,100604.98
2022-10-03T21:06:53.216Z,100592.79
2022-10-03T21:09:35.620Z,100588.23
2022-10-03T21:12:08.977Z,100594.34
2022-10-03T21:14:43.128Z,100596.50
2022-10-03T21:17:18.597Z,100601.71
2022-10-03T21:19:54.506Z,100601.63
2022-10-03T21:22:29.277Z,100602.93
2022-10-03T21:25:03.580Z,100602.57
2022-10-03T21:27:36.729Z,100600.02
2022-10-03T21:30:19.485Z,100599.90
2022-10-03T21:33:04.559Z,100601.45
2022-10-03T21:35:39.190Z,100605.26
2022-10-03T21:38:23.842Z,100609.73
2022-10-03T21:41:13.741Z,100616.30
2022-10-03T21:43:51.835Z,100621.53
2022-10-03T21:46:30.204Z,100624.74
2022-10-03T21:49:30.712Z,100621.16
2022-10-03T21:52:20.881Z,100616.10
2022-10-03T21:55:02.007Z,100612.85
2022-10-03T21:57:43.905Z,100610.73
2022-10-03T22:00:18.021Z,100612.55
2022-10-03T22:02:59.899Z,100609.15
2022-10-03T22:05:39.345Z,100610.67
2022-10-03T22:08:24.297Z,100609.79
2022-10-03T22:11:05.280Z,100609.29
2022-10-03T22:13:40.449Z,100609.42
2022-10-03T22:16:19.087Z,100607.11
2022-10-03T22:19:21.458Z,100614.91
2022-10-03T22:22:11.227Z,100614.20
2022-10-03T22:24:53.717Z,100617.36
2022-10-03T22:27:29.031Z,100618.77
2022-10-03T22:30:05.825Z,100619.30
2022-10-03T22:32:42.387Z,100617.84
2022-10-03T22:35:22.983Z,100614.96
2022-10-03T22:37:55.229Z,100612.36
2022-10-03T22:40:27.841Z,100604.23
2022-10-03T22:43:01.921Z,100600.05
2022-10-03T22:45:37.165Z,100601.52
2022-10-03T22:48:14.084Z,100597.07
2022-10-03T22:50:46.261Z,100601.61
2022-10-03T22:53:21.577Z,100602.58
2022-10-03T22:55:58.594Z,100604.50
2022-10-03T22:58:32.266Z,100607.66
2022-10-03T23:01:05.254Z,100609.83
2022-10-03T23:03:38.314Z,100608.34
2022-10-03T23:06:39.479Z,100608.67
2022-10-03T23:09:18.945Z,100610.95
2022-10-03T23:11:53.016Z,100605.56
2022-10-03T23:14:28.484Z,100609.73
2022-10-03T23:17:09.671Z,100608.81
2022-10-03T23:19:48.606Z,100610.61
2022-10-03T23:22:24.642Z,100607.05
2022-10-03T23:24:59.694Z,100604.44
2022-10-03T23:27:57.700Z,100604.73
2022-10-03T23:30:54.247Z,100607.86
2022-10-03T23:33:54.067Z,100610.92
2022-10-03T23:36:27.033Z,100612.23
2022-10-03T23:39:02.885Z,100613.67
2022-10-03T23:41:48.523Z,100616.42
2022-10-03T23:44:48.923Z,100615.06
2022-10-03T23:47:25.173Z,100618.44
2022-10-03T23:49:57.526Z,100618.83
2022-10-03T23:52:36.049Z,100615.45
2022-10-03T23:55:10.032Z,100615.13
2022-10-03T23:57:44.108Z,100621.42
